createdAt,value
2022-08-07T00:00:40.175Z,23.15
2022-08-07T00:03:10.124Z,23.10
2022-08-07T00:05:38.482Z,23.16
2022-08-07T00:08:07.866Z,23.07
2022-08-07T00:10:48.162Z,23.03
2022-08-07T00:13:26.941Z,23.05
2022-08-07T00:15:55.889Z,23.05
2022-08-07T00:18:27.966Z,23.02
2022-08-07T00:21:01.846Z,22.97
2022-08-07T00:23:32.373Z,22.94
2022-08-07T00:26:13.405Z,22.90
2022-08-07T00:28:56.460Z,22.73
2022-08-07T00:31:26.247Z,22.66
2022-08-07T00:34:08.640Z,22.68
2022-08-07T00:36:38.594Z,22.45
2022-08-07T00:39:16.165Z,22.45
2022-08-07T00:41:53.777Z,22.41
2022-08-07T00:44:29.686Z,22.45
2022-08-07T00:46:57.765Z,22.43
2022-08-07T00:50:20.638Z,22.46
2022-08-07T00:52:17.578Z,22.46
2022-08-07T00:54:53.736Z,22.46
2022-08-07T00:57:23.163Z,22.44
2022-08-07T00:59:54.157Z,22.43
2022-08-07T01:02:28.507Z,22.35
2022-08-07T01:05:00.154Z,22.34
2022-08-07T01:07:30.944Z,22.31
2022-08-07T01:10:07.152Z,22.34
2022-08-07T01:12:53.258Z,22.32
2022-08-07T01:15:22.634Z,22.28
2022-08-07T01:18:04.719Z,22.27
2022-08-07T01:20:43.426Z,22.23
2022-08-07T01:23:14.140Z,22.26
2022-08-07T01:25:55.544Z,22.22
2022-08-07T01:28:25.140Z,22.18
2022-08-07T01:30:53.901Z,22.16
2022-08-07T01:33:22.618Z,22.15
2022-08-07T01:35:53.266Z,22.10
2022-08-07T01:38:25.727Z,22.03
2022-08-07T01:40:56.373Z,22.05
2022-08-07T01:43:26.033Z,22.02
2022-08-07T01:45:55.220Z,21.90
2022-08-07T01:48:30.811Z,21.98
2022-08-07T01:51:24.224Z,21.97
2022-08-07T01:54:06.241Z,21.97
2022-08-07T01:56:49.326Z,21.96
2022-08-07T01:59:23.858Z,21.95
2022-08-07T02:02:06.236Z,21.91
2022-08-07T02:04:56.022Z,21.91
2022-08-07T02:07:45.067Z,21.89
2022-08-07T02:13:08.994Z,21.89
2022-08-07T02:15:40.562Z,21.95
2022-08-07T02:18:13.418Z,21.91
2022-08-07T02:20:43.716Z,21.88
2022-08-07T02:23:20.064Z,21.80
2022-08-07T02:26:31.302Z,21.75
2022-08-07T02:28:45.148Z,21.70
2022-08-07T02:31:28.838Z,21.74
2022-08-07T02:34:02.982Z,21.68
2022-08-07T02:36:34.340Z,21.64
2022-08-07T02:39:09.235Z,21.63
2022-08-07T02:41:50.620Z,21.52
2022-08-07T02:44:26.841Z,21.59
2022-08-07T02:47:01.039Z,21.61
2022-08-07T02:49:58.754Z,21.52
2022-08-07T02:52:31.936Z,21.51
2022-08-07T02:55:04.218Z,21.49
2022-08-07T02:57:34.985Z,21.48
2022-08-07T03:00:11.084Z,21.43
2022-08-07T03:02:54.815Z,21.37
2022-08-07T03:05:25.468Z,21.32
2022-08-07T03:08:05.018Z,21.32
2022-08-07T03:10:40.898Z,21.33
2022-08-07T03:13:15.886Z,21.30
2022-08-07T03:15:58.330Z,21.29
2022-08-07T03:18:34.565Z,21.30
2022-08-07T03:21:08.473Z,21.30
2022-08-07T03:24:21.191Z,21.35
2022-08-07T03:26:32.486Z,21.40
2022-08-07T03:29:04.199Z,21.41
2022-08-07T03:31:43.502Z,21.45
2022-08-07T03:34:18.660Z,21.52
2022-08-07T03:36:51.949Z,21.61
2022-08-07T03:39:46.316Z,21.60
2022-08-07T03:42:11.430Z,21.58
2022-08-07T03:44:40.856Z,21.57
2022-08-07T03:47:14.330Z,21.61
2022-08-07T03:49:47.975Z,21.67
2022-08-07T03:52:26.461Z,21.64
2022-08-07T03:54:57.321Z,21.80
2022-08-07T03:58:33.134Z,21.81
2022-08-07T04:00:29.365Z,21.85
2022-08-07T04:03:04.305Z,21.90
2022-08-07T04:05:40.509Z,21.95
2022-08-07T04:08:12.429Z,21.99
2022-08-07T04:10:42.335Z,22.06
2022-08-07T04:13:15.094Z,22.12
2022-08-07T04:15:45.601Z,22.15
2022-08-07T04:18:58.697Z,22.27
2022-08-07T04:21:07.476Z,22.34
2022-08-07T04:23:43.653Z,22.45
2022-08-07T04:26:28.419Z,22.56
2022-08-07T04:28:56.943Z,22.73
2022-08-07T04:32:02.409Z,22.92
2022-08-07T04:34:27.339Z,23.14
2022-08-07T04:37:01.428Z,23.34
2022-08-07T04:39:35.782Z,23.54
2022-08-07T04:42:04.505Z,23.69
2022-08-07T04:44:33.946Z,23.80
2022-08-07T04:47:09.181Z,23.89
2022-08-07T04:49:57.961Z,23.99
2022-08-07T04:52:50.918Z,24.14
2022-08-07T04:58:12.160Z,24.41
2022-08-07T04:58:38.775Z,24.59
2022-08-07T05:01:19.049Z,24.74
2022-08-07T05:04:07.112Z,24.72
2022-08-07T05:06:51.805Z,24.75
2022-08-07T05:09:45.909Z,24.89
2022-08-07T05:12:27.228Z,25.10
2022-08-07T05:15:23.545Z,25.23
2022-08-07T05:17:58.354Z,25.47
2022-08-07T05:20:34.926Z,25.66
2022-08-07T05:23:16.182Z,25.82
2022-08-07T05:26:13.286Z,26.05
2022-08-07T05:28:36.127Z,26.28
2022-08-07T05:31:12.713Z,26.47
2022-08-07T05:33:51.177Z,26.72
2022-08-07T05:36:35.084Z,26.87
2022-08-07T05:40:03.769Z,27.04
2022-08-07T05:42:02.423Z,27.25
2022-08-07T05:44:34.949Z,27.46
2022-08-07T05:47:17.797Z,27.63
2022-08-07T05:49:46.936Z,27.83
2022-08-07T05:52:14.989Z,27.95
2022-08-07T05:54:55.613Z,28.05
2022-08-07T05:57:26.801Z,28.15
2022-08-07T06:00:01.198Z,28.22
2022-08-07T06:02:32.508Z,28.37
2022-08-07T06:05:05.165Z,28.57
2022-08-07T06:08:14.110Z,28.55
2022-08-07T06:10:24.672Z,28.64
2022-08-07T06:12:52.922Z,28.67
2022-08-07T06:15:39.022Z,28.88
2022-08-07T06:18:14.029Z,28.35
2022-08-07T06:20:50.804Z,28.83
2022-08-07T06:24:38.508Z,28.99
2022-08-07T06:26:21.368Z,29.14
2022-08-07T06:28:57.101Z,29.37
2022-08-07T06:31:46.482Z,29.42
2022-08-07T06:34:16.010Z,29.33
2022-08-07T06:36:47.936Z,29.52
2022-08-07T06:40:15.759Z,29.71
2022-08-07T06:42:16.122Z,29.92
2022-08-07T06:44:51.189Z,30.17
2022-08-07T06:47:21.098Z,30.36
2022-08-07T06:49:51.014Z,30.37
2022-08-07T06:52:31.369Z,30.40
2022-08-07T06:55:31.764Z,30.47
2022-08-07T06:57:59.803Z,30.68
2022-08-07T07:00:30.463Z,30.94
2022-08-07T07:03:01.173Z,30.66
2022-08-07T07:06:02.763Z,30.56
2022-08-07T07:08:29.024Z,30.72
2022-08-07T07:10:58.802Z,31.00
2022-08-07T07:13:56.008Z,31.31
2022-08-07T07:16:27.600Z,31.39
2022-08-07T07:19:04.073Z,31.64
2022-08-07T07:22:05.192Z,31.73
2022-08-07T07:24:32.691Z,31.88
2022-08-07T07:27:05.649Z,32.13
2022-08-07T07:30:07.574Z,32.10
2022-08-07T07:32:31.773Z,32.39
2022-08-07T07:35:01.936Z,32.41
2022-08-07T07:37:45.231Z,32.53
2022-08-07T07:40:21.158Z,32.47
2022-08-07T07:42:56.590Z,32.60
2022-08-07T07:46:39.798Z,32.58
2022-08-07T07:48:34.731Z,32.85
2022-08-07T07:51:07.925Z,32.95
2022-08-07T07:53:42.998Z,32.90
2022-08-07T07:56:30.266Z,32.85
2022-08-07T07:59:01.709Z,32.73
2022-08-07T08:02:02.379Z,32.94
2022-08-07T08:04:25.896Z,33.29
2022-08-07T08:07:00.637Z,32.98
2022-08-07T08:09:32.861Z,32.73
2022-08-07T08:12:50.071Z,32.54
2022-08-07T08:15:10.877Z,32.20
2022-08-07T08:17:58.058Z,32.24
2022-08-07T08:20:32.142Z,32.27
2022-08-07T08:23:19.198Z,32.24
2022-08-07T08:26:08.476Z,32.42
2022-08-07T08:28:45.163Z,32.35
2022-08-07T08:31:30.245Z,32.38
2022-08-07T08:34:12.477Z,32.54
2022-08-07T08:36:58.414Z,33.05
2022-08-07T08:39:39.490Z,32.92
2022-08-07T08:42:25.773Z,33.17
2022-08-07T08:45:04.751Z,33.39
2022-08-07T08:47:51.986Z,33.72
2022-08-07T08:50:35.040Z,34.08
2022-08-07T08:53:19.321Z,34.25
2022-08-07T08:55:54.304Z,34.59
2022-08-07T08:58:36.179Z,34.87
2022-08-07T09:01:15.391Z,34.86
2022-08-07T09:03:55.547Z,34.90
2022-08-07T09:06:42.822Z,35.00
2022-08-07T09:09:36.696Z,35.17
2022-08-07T09:12:30.463Z,35.32
2022-08-07T09:16:22.881Z,35.43
2022-08-07T09:18:22.518Z,35.42
2022-08-07T09:21:00.944Z,35.17
2022-08-07T09:24:34.138Z,35.13
2022-08-07T09:26:47.802Z,34.96
2022-08-07T09:30:06.370Z,34.98
2022-08-07T09:32:26.833Z,34.95
2022-08-07T09:36:04.889Z,35.23
2022-08-07T09:38:01.309Z,35.32
2022-08-07T09:40:39.238Z,35.10
2022-08-07T09:44:03.689Z,34.43
2022-08-07T09:47:24.047Z,34.43
2022-08-07T09:50:02.360Z,34.44
2022-08-07T09:52:33.553Z,34.15
2022-08-07T09:55:17.422Z,34.41
2022-08-07T09:58:42.314Z,34.96
2022-08-07T10:01:51.201Z,34.86
2022-08-07T10:04:33.317Z,34.55
2022-08-07T10:07:25.708Z,34.89
2022-08-07T10:10:21.762Z,35.17
2022-08-07T10:13:10.941Z,34.88
2022-08-07T10:15:55.799Z,35.21
2022-08-07T10:19:18.737Z,34.82
2022-08-07T10:22:14.928Z,34.40
2022-08-07T10:24:57.583Z,33.88
2022-08-07T10:27:46.598Z,34.30
2022-08-07T10:30:19.198Z,34.34
2022-08-07T10:33:08.491Z,34.79
2022-08-07T10:36:05.485Z,34.79
2022-08-07T10:38:52.908Z,34.70
2022-08-07T10:41:51.366Z,34.46
2022-08-07T10:44:33.844Z,34.72
2022-08-07T10:47:27.251Z,34.80
2022-08-07T10:50:15.081Z,34.94
2022-08-07T10:52:52.830Z,34.67
2022-08-07T10:55:37.892Z,34.55
2022-08-07T10:58:24.878Z,34.87
2022-08-07T11:01:16.684Z,35.11
2022-08-07T11:03:58.030Z,34.57
2022-08-07T11:06:42.186Z,34.28
2022-08-07T11:10:07.841Z,34.26
2022-08-07T11:12:15.020Z,34.55
2022-08-07T11:15:03.993Z,33.55
2022-08-07T11:17:47.936Z,33.99
2022-08-07T11:20:22.541Z,33.72
2022-08-07T11:23:02.856Z,34.11
2022-08-07T11:25:36.052Z,33.72
2022-08-07T11:28:17.551Z,33.76
2022-08-07T11:30:53.106Z,33.64
2022-08-07T11:33:58.626Z,33.68
2022-08-07T11:36:40.472Z,33.83
2022-08-07T11:39:25.193Z,33.83
2022-08-07T11:42:18.964Z,33.76
2022-08-07T11:44:57.931Z,33.98
2022-08-07T11:47:56.280Z,34.18
2022-08-07T11:50:58.219Z,34.33
2022-08-07T11:53:43.385Z,34.29
2022-08-07T11:56:43.172Z,34.58
2022-08-07T12:00:12.505Z,34.47
2022-08-07T12:02:32.215Z,34.24
2022-08-07T12:05:28.506Z,34.32
2022-08-07T12:08:31.833Z,34.53
2022-08-07T12:11:20.037Z,34.66
2022-08-07T12:13:57.890Z,34.62
2022-08-07T12:16:30.543Z,34.92
2022-08-07T12:19:07.728Z,34.72
2022-08-07T12:22:35.802Z,34.98
2022-08-07T12:24:40.371Z,34.82
2022-08-07T12:27:16.189Z,34.92
2022-08-07T12:29:54.523Z,34.58
2022-08-07T12:32:32.417Z,34.48
2022-08-07T12:35:08.216Z,34.61
2022-08-07T12:38:10.259Z,34.49
2022-08-07T12:40:48.954Z,34.28
2022-08-07T12:44:02.540Z,34.31
2022-08-07T12:46:26.548Z,34.29
2022-08-07T12:49:10.307Z,34.47
2022-08-07T12:52:13.842Z,34.62
2022-08-07T12:54:54.532Z,34.64
2022-08-07T12:57:39.328Z,34.61
2022-08-07T13:00:33.068Z,34.67
2022-08-07T13:03:27.452Z,34.28
2022-08-07T13:06:26.989Z,34.26
2022-08-07T13:09:12.608Z,34.03
2022-08-07T13:12:09.916Z,34.23
2022-08-07T13:14:55.146Z,34.32
2022-08-07T13:17:39.791Z,34.10
2022-08-07T13:20:17.234Z,34.08
2022-08-07T13:22:53.178Z,34.22
2022-08-07T13:25:30.807Z,34.31
2022-08-07T13:28:11.617Z,34.29
2022-08-07T13:30:53.129Z,34.17
2022-08-07T13:34:30.292Z,33.91
2022-08-07T13:36:25.979Z,34.01
2022-08-07T13:39:02.737Z,34.22
2022-08-07T13:41:41.689Z,34.22
2022-08-07T13:44:13.379Z,34.23
2022-08-07T13:46:48.912Z,34.16
2022-08-07T13:50:35.897Z,34.02
2022-08-07T13:52:27.235Z,34.02
2022-08-07T13:55:07.144Z,34.05
2022-08-07T13:57:38.520Z,33.93
2022-08-07T14:00:26.282Z,34.00
2022-08-07T14:02:59.459Z,33.80
2022-08-07T14:05:37.107Z,33.50
2022-08-07T14:08:09.314Z,33.63
2022-08-07T14:10:42.071Z,33.61
2022-08-07T14:13:16.257Z,33.66
2022-08-07T14:15:51.446Z,33.70
2022-08-07T14:18:28.551Z,33.64
2022-08-07T14:21:08.183Z,33.45
2022-08-07T14:24:00.474Z,33.32
2022-08-07T14:26:34.791Z,33.33
2022-08-07T14:30:08.126Z,33.41
2022-08-07T14:32:02.466Z,33.32
2022-08-07T14:34:33.128Z,33.30
2022-08-07T14:37:03.648Z,33.48
2022-08-07T14:40:18.193Z,33.41
2022-08-07T14:42:32.355Z,33.64
2022-08-07T14:45:21.855Z,33.65
2022-08-07T14:50:44.350Z,33.79
2022-08-07T14:53:13.864Z,33.80
2022-08-07T14:55:55.873Z,33.88
2022-08-07T14:58:28.580Z,33.56
2022-08-07T15:01:00.430Z,33.18
2022-08-07T15:03:52.925Z,33.07
2022-08-07T15:06:25.871Z,32.25
2022-08-07T15:08:55.833Z,31.92
2022-08-07T15:14:25.408Z,31.63
2022-08-07T15:17:04.275Z,31.56
2022-08-07T15:22:31.346Z,31.47
2022-08-07T15:25:17.718Z,31.80
2022-08-07T15:31:05.374Z,31.60
2022-08-07T15:33:34.021Z,31.74
2022-08-07T15:36:07.759Z,31.67
2022-08-07T15:38:51.784Z,31.71
2022-08-07T15:44:23.689Z,31.73
2022-08-07T15:47:08.623Z,31.79
2022-08-07T15:50:05.719Z,32.07
2022-08-07T15:52:30.305Z,32.09
2022-08-07T15:55:02.292Z,32.31
2022-08-07T15:57:39.604Z,32.31
2022-08-07T16:00:22.728Z,31.85
2022-08-07T16:03:04.300Z,31.97
2022-08-07T16:05:33.052Z,31.61
2022-08-07T16:08:31.866Z,31.57
2022-08-07T16:11:01.241Z,31.70
2022-08-07T16:14:08.997Z,31.77
2022-08-07T16:17:03.511Z,31.60
2022-08-07T16:20:01.527Z,31.70
2022-08-07T16:22:58.416Z,31.75
2022-08-07T16:25:56.644Z,31.86
2022-08-07T16:30:06.124Z,31.71
2022-08-07T16:31:50.392Z,31.56
2022-08-07T16:34:27.614Z,31.44
2022-08-07T16:38:04.777Z,31.69
2022-08-07T16:40:35.797Z,31.60
2022-08-07T16:43:14.422Z,31.57
2022-08-07T16:47:04.767Z,31.59
2022-08-07T16:50:26.771Z,31.57
2022-08-07T16:52:51.371Z,31.59
2022-08-07T16:55:28.229Z,31.63
2022-08-07T16:58:23.140Z,31.49
2022-08-07T17:01:10.271Z,31.37
2022-08-07T17:03:59.756Z,31.17
2022-08-07T17:06:45.856Z,31.22
2022-08-07T17:10:07.833Z,31.20
2022-08-07T17:12:34.367Z,31.28
2022-08-07T17:15:08.771Z,31.25
2022-08-07T17:17:46.995Z,31.23
2022-08-07T17:20:29.972Z,31.21
2022-08-07T17:23:11.400Z,31.20
2022-08-07T17:25:52.767Z,30.98
2022-08-07T17:28:31.514Z,30.89
2022-08-07T17:31:16.185Z,30.83
2022-08-07T17:34:33.402Z,30.76
2022-08-07T17:36:58.325Z,30.59
2022-08-07T17:39:58.797Z,30.57
2022-08-07T17:42:59.330Z,30.52
2022-08-07T17:45:35.050Z,30.35
2022-08-07T17:48:10.250Z,30.33
2022-08-07T17:50:54.495Z,30.12
2022-08-07T17:54:00.095Z,30.08
2022-08-07T17:56:32.113Z,29.99
2022-08-07T17:59:16.802Z,29.94
2022-08-07T18:01:49.342Z,29.67
2022-08-07T18:04:34.497Z,29.56
2022-08-07T18:07:28.492Z,29.27
2022-08-07T18:10:10.221Z,29.14
2022-08-07T18:13:15.608Z,29.13
2022-08-07T18:16:00.165Z,28.94
2022-08-07T18:21:01.245Z,28.84
2022-08-07T18:21:57.929Z,28.65
2022-08-07T18:24:33.377Z,28.21
2022-08-07T18:27:38.916Z,28.23
2022-08-07T18:30:32.909Z,27.57
2022-08-07T18:33:55.057Z,27.57
2022-08-07T18:36:33.740Z,27.63
2022-08-07T18:40:06.872Z,27.72
2022-08-07T18:42:23.016Z,27.73
2022-08-07T18:45:42.961Z,27.68
2022-08-07T18:48:00.586Z,27.82
2022-08-07T18:50:53.956Z,27.86
2022-08-07T18:53:39.441Z,27.90
2022-08-07T18:56:17.732Z,28.05
2022-08-07T18:59:48.028Z,28.05
2022-08-07T19:02:31.630Z,28.04
2022-08-07T19:05:14.818Z,27.99
2022-08-07T19:07:57.258Z,27.97
2022-08-07T19:10:31.944Z,28.05
2022-08-07T19:13:24.547Z,28.10
2022-08-07T19:16:05.362Z,28.17
2022-08-07T19:18:55.817Z,28.17
2022-08-07T19:21:47.659Z,28.08
2022-08-07T19:24:35.229Z,28.07
2022-08-07T19:28:58.487Z,28.00
2022-08-07T19:31:05.964Z,28.00
2022-08-07T19:32:52.963Z,27.92
2022-08-07T19:35:33.259Z,27.83
2022-08-07T19:38:15.116Z,27.78
2022-08-07T19:40:49.356Z,27.67
2022-08-07T19:43:21.959Z,27.64
2022-08-07T19:46:11.253Z,27.57
2022-08-07T19:48:43.895Z,27.52
2022-08-07T19:51:20.614Z,27.46
2022-08-07T19:54:34.050Z,27.37
2022-08-07T19:58:02.227Z,27.17
2022-08-07T19:59:53.593Z,27.14
2022-08-07T20:02:31.341Z,27.05
2022-08-07T20:05:07.720Z,27.00
2022-08-07T20:07:47.046Z,26.96
2022-08-07T20:10:37.332Z,26.61
2022-08-07T20:13:23.107Z,26.14
2022-08-07T20:15:57.787Z,26.22
2022-08-07T20:18:32.370Z,26.19
2022-08-07T20:21:03.385Z,26.12
2022-08-07T20:23:48.456Z,26.01
2022-08-07T20:26:32.170Z,26.01
2022-08-07T20:29:10.562Z,26.02
2022-08-07T20:31:46.509Z,26.19
2022-08-07T20:34:34.330Z,26.27
2022-08-07T20:37:09.764Z,26.48
2022-08-07T20:40:02.103Z,26.38
2022-08-07T20:42:30.876Z,26.41
2022-08-07T20:45:01.402Z,26.42
2022-08-07T20:47:56.183Z,26.21
2022-08-07T20:50:22.084Z,26.36
2022-08-07T20:52:52.693Z,26.21
2022-08-07T20:55:23.766Z,26.37
2022-08-07T20:58:03.567Z,26.36
2022-08-07T21:00:38.072Z,26.31
2022-08-07T21:03:13.246Z,26.33
2022-08-07T21:05:54.376Z,26.17
2022-08-07T21:08:37.626Z,26.00
2022-08-07T21:11:12.412Z,26.18
2022-08-07T21:14:20.147Z,26.05
2022-08-07T21:16:56.087Z,26.06
2022-08-07T21:19:51.574Z,26.01
2022-08-07T21:22:21.423Z,26.01
2022-08-07T21:25:12.319Z,25.98
2022-08-07T21:28:01.691Z,25.94
2022-08-07T21:30:41.889Z,26.10
2022-08-07T21:33:16.334Z,26.06
2022-08-07T21:36:04.461Z,25.97
2022-08-07T21:38:50.122Z,25.75
2022-08-07T21:41:22.907Z,25.79
2022-08-07T21:43:58.200Z,25.96
2022-08-07T21:46:37.814Z,26.02
2022-08-07T21:49:15.169Z,25.78
2022-08-07T21:51:55.836Z,25.66
2022-08-07T21:54:36.495Z,25.63
2022-08-07T21:57:39.532Z,25.63
2022-08-07T22:00:22.026Z,25.69
2022-08-07T22:02:57.669Z,25.66
2022-08-07T22:05:45.489Z,25.66
2022-08-07T22:08:18.955Z,25.50
2022-08-07T22:10:51.027Z,25.61
2022-08-07T22:13:24.174Z,25.72
2022-08-07T22:16:39.589Z,25.79
2022-08-07T22:18:59.377Z,25.40
2022-08-07T22:22:05.306Z,25.34
2022-08-07T22:24:33.388Z,25.07
2022-08-07T22:27:07.620Z,25.32
2022-08-07T22:29:49.566Z,25.21
2022-08-07T22:32:25.505Z,25.31
2022-08-07T22:34:57.402Z,25.16
2022-08-07T22:38:01.780Z,25.08
2022-08-07T22:40:29.692Z,25.06
2022-08-07T22:43:03.898Z,25.19
2022-08-07T22:46:21.631Z,24.95
2022-08-07T22:49:00.450Z,25.00
2022-08-07T22:51:52.200Z,25.10
2022-08-07T22:54:49.894Z,25.20
2022-08-07T22:57:49.867Z,25.08
2022-08-07T23:00:21.509Z,25.04
2022-08-07T23:03:57.310Z,25.05
2022-08-07T23:06:51.904Z,25.10
2022-08-07T23:10:04.111Z,25.10
2022-08-07T23:12:48.717Z,24.93
2022-08-07T23:16:05.523Z,24.76
2022-08-07T23:18:38.142Z,24.80
2022-08-07T23:21:29.983Z,24.59
2022-08-07T23:24:27.942Z,24.55
2022-08-07T23:27:33.888Z,24.77
2022-08-07T23:30:39.172Z,24.69
2022-08-07T23:34:36.191Z,24.62
2022-08-07T23:36:08.365Z,24.51
2022-08-07T23:38:54.695Z,24.38
2022-08-07T23:41:47.473Z,24.40
2022-08-07T23:44:52.791Z,24.37
2022-08-07T23:47:42.163Z,24.46
2022-08-07T23:50:37.391Z,24.27
2022-08-07T23:53:16.643Z,24.33
2022-08-07T23:55:56.571Z,24.09
2022-08-07T23:58:38.078Z,23.99
